Time;durP1;ratioP1;P1;durP2;ratioP2;P2;SDS_P1;SDS_P2;PMS_P1;PMS_P2;Temp;Humidity;BMP_temperature;BMP_pressure;BME280_temperature;BME280_humidity;BME280_pressure;Samples;Min_cycle;Max_cycle;Signal;HPM_P1;HPM_P2
2021/05/23 00:00:28;;;;;;;5.75;3.00;;;10.60;99.90;;;;;;5013524;28;20030;-82
2021/05/23 00:02:56;;;;;;;6.38;3.10;;;10.60;99.90;;;;;;4996218;28;20346;-81
2021/05/23 00:05:27;;;;;;;4.55;3.20;;;10.50;99.90;;;;;;5013741;28;20034;-80
2021/05/23 00:08:19;;;;;;;7.00;3.63;;;10.60;99.90;;;;;;4995934;28;20426;-81
2021/05/23 00:11:02;;;;;;;4.50;3.03;;;10.60;99.90;;;;;;4995293;28;20465;-82
2021/05/23 00:13:31;;;;;;;7.15;3.60;;;10.50;99.90;;;;;;4995894;28;20435;-81
2021/05/23 00:16:26;;;;;;;4.88;3.05;;;10.60;99.90;;;;;;5013543;28;20101;-81
2021/05/23 00:18:54;;;;;;;4.32;3.55;;;10.50;99.90;;;;;;4993934;28;20037;-83
2021/05/23 00:21:22;;;;;;;5.90;3.42;;;10.60;99.90;;;;;;4996386;28;20069;-83
2021/05/23 00:23:47;;;;;;;4.43;3.47;;;10.50;99.90;;;;;;5014031;28;20053;-82
2021/05/23 00:26:13;;;;;;;4.53;3.10;;;10.60;99.90;;;;;;4996328;28;20477;-85
2021/05/23 00:28:40;;;;;;;5.00;2.95;;;10.50;99.90;;;;;;4996472;28;20050;-83
2021/05/23 00:31:06;;;;;;;5.45;3.30;;;10.60;99.90;;;;;;4996306;28;20054;-81
2021/05/23 00:33:32;;;;;;;4.05;3.03;;;10.60;99.90;;;;;;4996750;28;20022;-81
2021/05/23 00:35:58;;;;;;;5.00;3.15;;;10.60;99.90;;;;;;4996097;28;20030;-81
2021/05/23 00:38:24;;;;;;;3.95;3.25;;;10.60;99.90;;;;;;5015969;28;20032;-81
2021/05/23 00:40:50;;;;;;;5.50;3.30;;;10.60;99.90;;;;;;5000044;28;20037;-83
2021/05/23 00:43:18;;;;;;;3.70;3.25;;;10.60;99.90;;;;;;4999754;28;20026;-82
2021/05/23 00:45:49;;;;;;;4.07;3.40;;;10.50;99.90;;;;;;4983780;28;20478;-81
2021/05/23 00:48:16;;;;;;;3.95;2.90;;;10.50;99.90;;;;;;4999788;28;20061;-82
2021/05/23 00:50:42;;;;;;;5.45;3.17;;;10.60;99.90;;;;;;4999778;28;20026;-83
2021/05/23 00:53:08;;;;;;;4.93;3.20;;;10.60;99.90;;;;;;4999899;28;20022;-82
2021/05/23 00:55:35;;;;;;;3.38;2.90;;;10.60;99.90;;;;;;4999644;28;20037;-84
2021/05/23 00:58:01;;;;;;;4.07;3.22;;;10.60;99.90;;;;;;4999964;28;20022;-82
2021/05/23 01:00:36;;;;;;;4.78;3.03;;;10.60;99.90;;;;;;4999543;28;20022;-84
2021/05/23 01:03:02;;;;;;;4.88;3.17;;;10.60;99.90;;;;;;4999657;28;20148;-81
2021/05/23 01:05:29;;;;;;;3.80;2.80;;;10.70;99.90;;;;;;4999838;28;20072;-86
2021/05/23 01:07:55;;;;;;;4.25;3.30;;;10.60;99.90;;;;;;4999814;28;20069;-85
2021/05/23 01:10:25;;;;;;;3.70;2.60;;;10.70;99.90;;;;;;4999875;28;20470;-84
2021/05/23 01:12:57;;;;;;;5.18;3.00;;;10.70;99.90;;;;;;4999674;28;20030;-84
2021/05/23 01:15:33;;;;;;;5.50;2.80;;;10.70;99.90;;;;;;4999639;28;20030;-82
2021/05/23 01:18:02;;;;;;;4.65;3.03;;;10.70;99.90;;;;;;5017059;28;20053;-84
2021/05/23 01:20:39;;;;;;;3.67;2.90;;;10.80;99.90;;;;;;5016902;28;20053;-80
2021/05/23 01:23:21;;;;;;;4.93;4.10;;;10.80;99.90;;;;;;4999670;28;20033;-81
2021/05/23 01:25:50;;;;;;;4.43;2.95;;;10.80;99.90;;;;;;4998873;28;20088;-83
2021/05/23 01:28:17;;;;;;;4.93;3.00;;;10.80;99.90;;;;;;4999177;28;20022;-89
2021/05/23 01:30:46;;;;;;;5.22;3.35;;;10.80;99.90;;;;;;4998817;28;20022;-81
2021/05/23 01:33:14;;;;;;;4.45;2.97;;;10.70;99.90;;;;;;4998785;28;20026;-83
2021/05/23 01:35:42;;;;;;;5.25;3.22;;;10.70;99.90;;;;;;4999134;28;20112;-82
2021/05/23 01:38:16;;;;;;;4.65;3.20;;;10.70;99.90;;;;;;4999106;28;20477;-82
2021/05/23 01:40:42;;;;;;;6.30;3.30;;;10.60;99.90;;;;;;4999199;28;20030;-86
2021/05/23 01:43:09;;;;;;;4.43;3.30;;;10.60;99.90;;;;;;4999359;28;20432;-83
2021/05/23 01:45:36;;;;;;;4.28;3.20;;;10.70;99.90;;;;;;4998807;28;20038;-85
2021/05/23 01:48:03;;;;;;;5.93;3.25;;;10.60;99.90;;;;;;5016081;28;20026;-81
2021/05/23 01:50:29;;;;;;;4.20;2.78;;;10.70;99.90;;;;;;4997947;28;20084;-81
2021/05/23 01:52:58;;;;;;;6.05;3.42;;;10.70;99.90;;;;;;4998663;28;20049;-85
2021/05/23 01:55:25;;;;;;;3.47;3.10;;;10.70;99.90;;;;;;4998506;28;20488;-81
2021/05/23 01:57:51;;;;;;;4.18;2.67;;;10.70;99.90;;;;;;4998847;28;20126;-83
2021/05/23 02:00:21;;;;;;;7.15;3.70;;;10.70;99.90;;;;;;5016215;28;20033;-85
2021/05/23 02:02:47;;;;;;;4.07;3.17;;;10.70;99.90;;;;;;4998913;28;20099;-81
2021/05/23 02:05:13;;;;;;;4.97;3.10;;;10.80;99.90;;;;;;5015939;28;20090;-85
2021/05/23 02:07:39;;;;;;;3.47;3.10;;;10.70;99.90;;;;;;4998318;28;20018;-82
2021/05/23 02:10:11;;;;;;;5.00;2.92;;;10.70;99.90;;;;;;4998485;28;20022;-83
2021/05/23 02:12:36;;;;;;;5.00;3.42;;;10.70;99.90;;;;;;5015890;28;20033;-84
2021/05/23 02:15:04;;;;;;;5.47;3.50;;;10.60;99.90;;;;;;4998284;28;20033;-83
2021/05/23 02:17:37;;;;;;;3.83;3.28;;;10.60;99.90;;;;;;4997506;28;20029;-81
2021/05/23 02:20:06;;;;;;;4.70;3.40;;;10.60;99.90;;;;;;4998206;28;20026;-83
2021/05/23 02:22:36;;;;;;;5.85;3.05;;;10.60;99.90;;;;;;4998005;28;20026;-83
2021/05/23 02:25:02;;;;;;;4.10;3.30;;;10.60;99.90;;;;;;4997967;28;20387;-80
2021/05/23 02:27:27;;;;;;;4.90;3.50;;;10.60;99.90;;;;;;4998513;28;20079;-84
2021/05/23 02:29:53;;;;;;;4.47;3.55;;;10.60;99.90;;;;;;5015560;28;20481;-84
2021/05/23 02:32:19;;;;;;;4.13;3.08;;;10.60;99.90;;;;;;5014945;28;20074;-81
2021/05/23 02:34:46;;;;;;;4.95;3.47;;;10.70;99.90;;;;;;4998121;28;20059;-82
2021/05/23 02:37:12;;;;;;;5.43;3.17;;;10.70;99.90;;;;;;4997999;28;20022;-82
2021/05/23 02:39:37;;;;;;;4.00;3.47;;;10.70;99.90;;;;;;4997707;28;20030;-83
2021/05/23 02:42:03;;;;;;;4.45;3.08;;;10.60;99.90;;;;;;4997932;28;20028;-83
2021/05/23 02:44:29;;;;;;;4.63;2.92;;;10.70;99.90;;;;;;4997705;28;20080;-82
2021/05/23 02:46:54;;;;;;;4.80;3.30;;;10.70;99.90;;;;;;4997966;28;20034;-85
2021/05/23 02:49:20;;;;;;;3.65;3.05;;;10.70;99.90;;;;;;4997736;28;20032;-83
2021/05/23 02:51:45;;;;;;;4.95;3.50;;;10.70;99.90;;;;;;4997588;28;20117;-82
2021/05/23 02:54:11;;;;;;;3.40;3.10;;;10.70;99.90;;;;;;5015734;28;20106;-82
2021/05/23 02:56:37;;;;;;;7.30;4.18;;;10.60;99.90;;;;;;4997303;28;20059;-85
2021/05/23 02:59:02;;;;;;;5.18;3.75;;;10.60;99.90;;;;;;5014901;28;20026;-80
2021/05/23 03:01:28;;;;;;;5.95;3.65;;;10.60;99.90;;;;;;4997155;28;20033;-82
2021/05/23 03:03:54;;;;;;;3.83;3.25;;;10.60;99.90;;;;;;4997261;28;20458;-83
2021/05/23 03:06:20;;;;;;;4.97;3.70;;;10.60;99.90;;;;;;4997405;28;20076;-82
2021/05/23 03:08:46;;;;;;;4.32;3.25;;;10.70;99.90;;;;;;5014865;28;20030;-84
2021/05/23 03:11:12;;;;;;;4.65;3.70;;;10.70;99.90;;;;;;4997109;28;20036;-87
2021/05/23 03:13:37;;;;;;;6.88;3.40;;;10.70;99.90;;;;;;5015206;28;20381;-85
2021/05/23 03:16:05;;;;;;;5.57;4.10;;;10.70;99.90;;;;;;4997345;28;20029;-81
2021/05/23 03:18:31;;;;;;;7.88;3.70;;;10.70;99.90;;;;;;4997044;28;20535;-82
2021/05/23 03:20:56;;;;;;;5.03;3.53;;;10.70;99.90;;;;;;4996643;28;20033;-81
2021/05/23 03:23:22;;;;;;;4.07;3.20;;;10.70;99.90;;;;;;4997316;28;20029;-84
2021/05/23 03:25:48;;;;;;;4.18;3.40;;;10.80;99.90;;;;;;4996869;28;20493;-80
2021/05/23 03:28:15;;;;;;;5.30;3.80;;;10.80;99.90;;;;;;5014153;28;20029;-81
2021/05/23 03:30:42;;;;;;;5.38;4.38;;;10.70;99.90;;;;;;4996796;28;20049;-82
2021/05/23 03:33:08;;;;;;;6.20;4.45;;;10.70;99.90;;;;;;4996764;28;20030;-82
2021/05/23 03:35:35;;;;;;;5.55;3.90;;;10.80;99.90;;;;;;4997003;28;20465;-82
2021/05/23 03:38:02;;;;;;;5.20;4.28;;;10.70;99.90;;;;;;4996641;28;20064;-85
2021/05/23 03:40:30;;;;;;;5.00;4.03;;;10.70;99.90;;;;;;4996680;28;20029;-85
2021/05/23 03:42:56;;;;;;;5.95;4.30;;;10.60;99.90;;;;;;4996841;28;20120;-86
2021/05/23 03:45:23;;;;;;;6.35;4.45;;;10.70;99.90;;;;;;4996575;28;20177;-82
2021/05/23 03:47:49;;;;;;;5.82;3.85;;;10.70;99.90;;;;;;4996610;28;20484;-82
2021/05/23 03:50:19;;;;;;;5.78;4.68;;;10.70;99.90;;;;;;4996817;28;20461;-82
2021/05/23 03:52:49;;;;;;;4.70;3.92;;;10.70;99.90;;;;;;4996910;28;20018;-83
2021/05/23 03:55:15;;;;;;;5.28;3.40;;;10.70;99.90;;;;;;4996886;28;20025;-81
2021/05/23 03:57:41;;;;;;;5.80;3.78;;;10.80;99.90;;;;;;4996774;28;20037;-82
2021/05/23 04:00:08;;;;;;;5.13;4.10;;;10.80;99.90;;;;;;4996521;28;20026;-84
2021/05/23 04:02:34;;;;;;;6.88;4.20;;;10.70;99.90;;;;;;4996761;28;20491;-84
2021/05/23 04:05:00;;;;;;;6.22;3.88;;;10.80;99.90;;;;;;4996237;28;20117;-83
2021/05/23 04:07:27;;;;;;;4.53;3.95;;;10.80;99.90;;;;;;4996551;28;20026;-84
2021/05/23 04:09:53;;;;;;;4.57;4.03;;;10.80;99.90;;;;;;4996245;28;20495;-80
2021/05/23 04:12:27;;;;;;;5.82;3.95;;;10.80;99.90;;;;;;4997643;28;20014;-83
2021/05/23 04:14:53;;;;;;;4.53;4.00;;;10.80;99.90;;;;;;5000241;28;20053;-87
2021/05/23 04:17:18;;;;;;;5.03;3.88;;;10.80;99.90;;;;;;5000632;28;20022;-81
2021/05/23 04:19:44;;;;;;;5.50;4.40;;;10.90;99.90;;;;;;5000168;28;20033;-83
2021/05/23 04:22:10;;;;;;;4.10;3.35;;;11.00;99.90;;;;;;5000436;28;20026;-83
2021/05/23 04:24:38;;;;;;;4.85;3.58;;;10.90;99.90;;;;;;5003284;28;20377;-80
2021/05/23 04:27:04;;;;;;;3.63;2.60;;;10.90;99.90;;;;;;5002114;28;20474;-84
2021/05/23 04:29:32;;;;;;;4.97;2.70;;;12.50;99.90;;;;;;4999802;28;20049;-82
2021/05/23 04:31:59;;;;;;;4.15;2.83;;;12.30;99.90;;;;;;5016641;28;20057;-88
2021/05/23 04:34:25;;;;;;;5.25;3.15;;;12.20;99.90;;;;;;4999700;28;20079;-83
2021/05/23 04:36:51;;;;;;;4.28;2.90;;;11.90;99.90;;;;;;5017155;28;20018;-83
2021/05/23 04:39:17;;;;;;;3.97;3.00;;;11.70;99.90;;;;;;5016539;28;20037;-81
2021/05/23 04:41:42;;;;;;;3.10;2.80;;;11.50;99.90;;;;;;4999430;28;20026;-84
2021/05/23 04:44:08;;;;;;;6.13;3.67;;;11.40;99.90;;;;;;4999330;28;20504;-82
2021/05/23 04:46:34;;;;;;;4.38;3.33;;;11.30;99.90;;;;;;4999326;28;20381;-80
2021/05/23 04:49:00;;;;;;;4.53;4.07;;;11.20;99.90;;;;;;4999605;28;20057;-81
2021/05/23 04:51:25;;;;;;;5.50;4.15;;;11.10;99.90;;;;;;4999199;28;20036;-80
2021/05/23 04:53:51;;;;;;;6.10;4.45;;;11.00;99.90;;;;;;4999599;28;20022;-82
2021/05/23 04:56:17;;;;;;;5.32;4.15;;;11.00;99.90;;;;;;4999470;28;20032;-81
2021/05/23 04:58:43;;;;;;;4.28;3.88;;;11.10;99.90;;;;;;4998871;28;20022;-80
2021/05/23 05:01:08;;;;;;;5.10;4.15;;;11.00;99.90;;;;;;4999048;28;20116;-81
2021/05/23 05:03:34;;;;;;;4.72;3.72;;;11.00;99.90;;;;;;4998858;28;20108;-80
2021/05/23 05:06:00;;;;;;;4.63;3.22;;;11.10;99.90;;;;;;5016716;28;20034;-83
2021/05/23 05:08:25;;;;;;;4.03;3.42;;;11.10;99.90;;;;;;4998691;28;20053;-80
2021/05/23 05:10:51;;;;;;;6.35;3.80;;;11.10;99.90;;;;;;5016221;28;20026;-79
2021/05/23 05:13:17;;;;;;;5.85;4.30;;;11.20;99.90;;;;;;4999315;28;20165;-81
2021/05/23 05:15:42;;;;;;;3.78;3.35;;;11.20;99.90;;;;;;5002323;28;20121;-81
2021/05/23 05:18:08;;;;;;;7.32;3.78;;;11.30;99.90;;;;;;4998389;28;20029;-82
2021/05/23 05:20:34;;;;;;;5.30;3.88;;;11.20;99.90;;;;;;4998361;28;20030;-80
2021/05/23 05:22:59;;;;;;;4.78;3.80;;;11.30;99.90;;;;;;4998360;28;20073;-80
2021/05/23 05:25:25;;;;;;;4.03;3.63;;;11.30;99.90;;;;;;4997652;28;20045;-83
2021/05/23 05:27:51;;;;;;;4.22;3.50;;;11.30;99.90;;;;;;4998576;28;20022;-81
2021/05/23 05:30:17;;;;;;;6.82;3.72;;;11.40;99.90;;;;;;4998010;28;20026;-82
2021/05/23 05:32:43;;;;;;;4.47;3.60;;;11.40;99.90;;;;;;4997884;28;20042;-80
2021/05/23 05:35:09;;;;;;;3.83;3.40;;;11.40;99.90;;;;;;4997887;28;20085;-80
2021/05/23 05:37:34;;;;;;;7.07;5.78;;;11.30;99.90;;;;;;4998138;28;20113;-80
2021/05/23 05:40:02;;;;;;;20.40;17.95;;;11.30;99.90;;;;;;4998077;28;20109;-82
2021/05/23 05:42:28;;;;;;;7.00;4.38;;;11.40;99.90;;;;;;4998066;28;20028;-81
2021/05/23 05:44:54;;;;;;;4.20;3.80;;;11.40;99.90;;;;;;4997811;28;20113;-79
2021/05/23 05:47:19;;;;;;;5.53;3.97;;;11.30;99.90;;;;;;5015352;28;20029;-82
2021/05/23 05:49:45;;;;;;;4.68;3.80;;;11.30;99.90;;;;;;4997458;28;20041;-80
2021/05/23 05:52:11;;;;;;;5.07;3.60;;;11.40;99.90;;;;;;4997674;28;20076;-81
2021/05/23 05:54:37;;;;;;;4.40;4.00;;;11.40;99.90;;;;;;4997561;28;20140;-81
2021/05/23 05:57:03;;;;;;;5.25;4.10;;;11.40;99.90;;;;;;4997782;28;20057;-82
2021/05/23 05:59:28;;;;;;;6.63;4.93;;;11.40;99.90;;;;;;4982898;28;20065;-79
2021/05/23 06:01:54;;;;;;;5.70;4.63;;;11.40;99.90;;;;;;5001454;28;20032;-82
2021/05/23 06:04:20;;;;;;;5.20;4.60;;;11.40;99.90;;;;;;4997472;28;20017;-81
2021/05/23 06:06:45;;;;;;;4.85;4.00;;;11.40;99.90;;;;;;4997445;28;20038;-81
2021/05/23 06:09:11;;;;;;;16.30;14.50;;;11.50;99.90;;;;;;4997921;28;20033;-82
2021/05/23 06:11:36;;;;;;;27.50;24.88;;;11.60;99.90;;;;;;4998572;28;20029;-82
2021/05/23 06:14:03;;;;;;;10.60;9.52;;;11.60;99.90;;;;;;5014519;28;20053;-81
2021/05/23 06:16:28;;;;;;;8.57;7.15;;;11.70;99.90;;;;;;4997100;28;20497;-80
2021/05/23 06:18:54;;;;;;;6.72;5.25;;;11.70;99.90;;;;;;4997318;28;20056;-81
2021/05/23 06:21:20;;;;;;;6.03;4.80;;;11.80;99.90;;;;;;4997475;28;20026;-83
2021/05/23 06:23:45;;;;;;;5.97;4.18;;;11.90;99.90;;;;;;4997326;28;20026;-80
2021/05/23 06:26:15;;;;;;;6.50;3.50;;;12.10;99.90;;;;;;5014842;28;20088;-83
2021/05/23 06:28:43;;;;;;;6.18;4.30;;;12.20;99.90;;;;;;4997131;28;20440;-81
2021/05/23 06:31:09;;;;;;;5.13;3.50;;;12.30;99.90;;;;;;5014906;28;20093;-80
2021/05/23 06:33:35;;;;;;;5.65;3.55;;;12.40;99.90;;;;;;4997327;28;20442;-82
2021/05/23 06:36:01;;;;;;;4.40;3.58;;;12.50;99.90;;;;;;4996864;28;20021;-83
2021/05/23 06:38:26;;;;;;;4.47;4.03;;;12.60;99.90;;;;;;4997179;28;20394;-81
2021/05/23 06:40:52;;;;;;;10.68;9.60;;;12.60;99.90;;;;;;4997450;28;20030;-81
2021/05/23 06:43:18;;;;;;;4.57;3.63;;;12.50;99.90;;;;;;4997042;28;20026;-84
2021/05/23 06:45:44;;;;;;;5.03;3.03;;;12.60;99.90;;;;;;4997257;28;20533;-82
2021/05/23 06:48:10;;;;;;;6.50;3.40;;;12.60;99.90;;;;;;4997124;28;20022;-83
2021/05/23 06:50:37;;;;;;;5.10;2.97;;;12.60;99.90;;;;;;4996899;28;20084;-83
2021/05/23 06:53:04;;;;;;;3.42;2.38;;;12.60;99.90;;;;;;4997376;28;20112;-87
2021/05/23 06:55:29;;;;;;;5.55;3.60;;;12.60;99.90;;;;;;5014524;28;20030;-81
2021/05/23 06:57:55;;;;;;;4.30;2.85;;;12.50;99.90;;;;;;4997322;28;20022;-82
2021/05/23 07:00:21;;;;;;;5.97;3.28;;;12.50;99.90;;;;;;4996976;28;20033;-82
2021/05/23 07:02:47;;;;;;;3.75;3.38;;;12.60;99.90;;;;;;4996811;28;20105;-85
2021/05/23 07:05:14;;;;;;;4.28;2.80;;;12.70;99.90;;;;;;4996647;28;20111;-81
2021/05/23 07:07:39;;;;;;;7.38;3.92;;;12.70;99.90;;;;;;5014295;28;20026;-83
2021/05/23 07:10:07;;;;;;;4.72;3.70;;;12.90;99.90;;;;;;4996808;28;20022;-81
2021/05/23 07:12:33;;;;;;;5.18;3.40;;;13.20;99.90;;;;;;4996657;28;20030;-85
2021/05/23 07:14:58;;;;;;;4.88;3.60;;;13.50;99.90;;;;;;4996916;28;20160;-82
2021/05/23 07:17:24;;;;;;;3.95;3.22;;;13.60;99.90;;;;;;4996544;28;20030;-82
2021/05/23 07:19:49;;;;;;;4.90;2.95;;;13.70;99.90;;;;;;5014721;28;20461;-81
2021/05/23 07:22:15;;;;;;;4.88;3.47;;;13.70;99.90;;;;;;4997093;28;20036;-84
2021/05/23 07:24:41;;;;;;;3.40;3.10;;;13.70;99.90;;;;;;4996990;28;20087;-81
2021/05/23 07:27:07;;;;;;;4.88;3.33;;;13.70;99.90;;;;;;4996987;28;20030;-81
2021/05/23 07:29:32;;;;;;;6.55;3.08;;;13.60;99.90;;;;;;4996565;28;20474;-83
2021/05/23 07:31:58;;;;;;;4.07;2.88;;;13.50;99.90;;;;;;4996796;28;20058;-84
2021/05/23 07:34:24;;;;;;;3.55;2.70;;;13.40;99.90;;;;;;5014411;28;20033;-82
2021/05/23 07:36:50;;;;;;;4.53;3.00;;;13.20;99.90;;;;;;4996496;28;20026;-84
2021/05/23 07:39:16;;;;;;;4.43;3.28;;;13.00;99.90;;;;;;4996673;28;20136;-81
2021/05/23 07:41:42;;;;;;;4.38;3.13;;;12.90;99.90;;;;;;4996092;28;20141;-83
2021/05/23 07:44:08;;;;;;;5.95;3.30;;;12.80;99.90;;;;;;4996352;28;20026;-82
2021/05/23 07:46:33;;;;;;;5.18;3.65;;;12.70;99.90;;;;;;4996350;28;20100;-82
2021/05/23 07:48:59;;;;;;;6.07;3.55;;;12.70;99.90;;;;;;5000003;28;20028;-83
2021/05/23 07:51:24;;;;;;;3.97;3.63;;;12.60;99.90;;;;;;5000419;28;20057;-81
2021/05/23 07:53:51;;;;;;;5.30;4.15;;;12.60;99.90;;;;;;5000656;28;20022;-81
2021/05/23 07:56:17;;;;;;;5.60;4.20;;;12.50;99.90;;;;;;5000353;28;20121;-82
2021/05/23 07:58:43;;;;;;;7.60;4.85;;;12.60;99.90;;;;;;5000091;28;20076;-81
2021/05/23 08:01:10;;;;;;;6.90;4.70;;;12.50;99.90;;;;;;4999886;28;20056;-83
2021/05/23 08:03:35;;;;;;;5.20;4.35;;;12.50;99.90;;;;;;5000361;28;20033;-83
2021/05/23 08:06:03;;;;;;;5.70;3.70;;;12.50;99.90;;;;;;5017913;28;20034;-83
2021/05/23 08:08:29;;;;;;;8.85;3.90;;;12.50;99.90;;;;;;5000346;28;20033;-82
2021/05/23 08:10:55;;;;;;;4.95;3.80;;;12.40;99.90;;;;;;5000079;28;20424;-81
2021/05/23 08:13:20;;;;;;;4.65;4.25;;;12.50;99.90;;;;;;5017581;28;20076;-83
2021/05/23 08:15:46;;;;;;;4.28;3.97;;;12.40;99.90;;;;;;5000062;28;20082;-85
2021/05/23 08:18:17;;;;;;;4.30;3.90;;;12.50;99.90;;;;;;4998972;28;20381;-83
2021/05/23 08:20:42;;;;;;;6.72;4.10;;;12.50;99.90;;;;;;4999495;28;20026;-85
2021/05/23 08:23:08;;;;;;;6.20;3.65;;;12.50;99.90;;;;;;5016819;28;20032;-85
2021/05/23 08:25:34;;;;;;;4.60;3.97;;;12.50;99.90;;;;;;4999323;28;20513;-83
2021/05/23 08:28:00;;;;;;;4.20;3.78;;;12.50;99.90;;;;;;5017053;28;20022;-84
2021/05/23 08:30:25;;;;;;;5.70;3.65;;;12.40;99.90;;;;;;4999537;28;20121;-84
2021/05/23 08:32:51;;;;;;;5.15;3.75;;;12.40;99.90;;;;;;4999543;28;20037;-83
2021/05/23 08:35:17;;;;;;;3.92;3.47;;;12.40;99.90;;;;;;4999435;28;20120;-82
2021/05/23 08:37:42;;;;;;;4.95;3.70;;;12.50;99.90;;;;;;5017267;28;20101;-82
2021/05/23 08:40:08;;;;;;;5.32;4.13;;;12.40;99.90;;;;;;4999322;28;20034;-81
2021/05/23 08:42:36;;;;;;;5.13;2.35;;;12.40;99.90;;;;;;5001930;28;20030;-85
2021/05/23 08:45:06;;;;;;;4.18;1.67;;;12.30;99.90;;;;;;4999818;28;20041;-83
2021/05/23 08:47:39;;;;;;;6.72;1.63;;;12.10;99.90;;;;;;5017323;28;20531;-80
2021/05/23 08:50:06;;;;;;;3.22;2.08;;;12.00;99.90;;;;;;5017266;28;20022;-82
2021/05/23 08:52:31;;;;;;;4.28;1.80;;;11.90;99.90;;;;;;5000203;28;20378;-84
2021/05/23 08:54:58;;;;;;;4.25;1.90;;;11.70;99.90;;;;;;5000288;28;20018;-86
2021/05/23 08:57:24;;;;;;;4.75;2.30;;;11.60;99.90;;;;;;4999839;28;20030;-83
2021/05/23 08:59:50;;;;;;;5.47;2.90;;;11.60;99.90;;;;;;4999383;28;20032;-84
2021/05/23 09:02:16;;;;;;;6.95;3.13;;;11.50;99.90;;;;;;4999160;28;20120;-86
2021/05/23 09:04:52;;;;;;;7.35;4.32;;;11.50;99.90;;;;;;4999449;28;20054;-83
2021/05/23 09:07:19;;;;;;;5.28;3.60;;;11.50;99.90;;;;;;4999724;28;20034;-82
2021/05/23 09:09:47;;;;;;;6.40;2.72;;;11.50;99.90;;;;;;4999487;28;20033;-86
2021/05/23 09:12:15;;;;;;;9.35;7.13;;;11.50;99.90;;;;;;4999595;28;20475;-83
2021/05/23 09:14:50;;;;;;;3.25;2.42;;;11.50;99.90;;;;;;4999553;28;20125;-85
2021/05/23 09:17:33;;;;;;;31.38;19.60;;;11.50;99.90;;;;;;4999252;28;20125;-83
2021/05/23 09:19:59;;;;;;;26.52;15.77;;;11.50;99.90;;;;;;4999336;28;20022;-84
2021/05/23 09:22:27;;;;;;;12.38;7.45;;;11.50;99.90;;;;;;4999292;28;20029;-81
2021/05/23 09:25:01;;;;;;;16.55;9.75;;;11.60;99.90;;;;;;4998932;28;20018;-84
2021/05/23 09:27:30;;;;;;;25.00;22.40;;;11.70;99.90;;;;;;4999227;28;20030;-81
2021/05/23 09:30:13;;;;;;;4.75;4.05;;;11.70;99.90;;;;;;4998767;28;20026;-84
2021/05/23 09:32:41;;;;;;;7.90;4.47;;;11.70;99.90;;;;;;4998668;28;20050;-82
2021/05/23 09:35:08;;;;;;;20.98;10.60;;;11.80;99.90;;;;;;4997854;28;20072;-78
2021/05/23 09:37:34;;;;;;;10.65;4.63;;;11.80;99.90;;;;;;5015642;28;20071;-80
2021/05/23 09:40:01;;;;;;;13.90;7.43;;;11.80;99.90;;;;;;5018318;28;20030;-79
2021/05/23 09:42:27;;;;;;;15.95;8.40;;;11.80;99.90;;;;;;5014609;28;20029;-75
2021/05/23 09:44:57;;;;;;;15.57;8.32;;;11.60;99.90;;;;;;5019068;28;20041;-78
2021/05/23 09:47:23;;;;;;;19.15;9.95;;;11.60;99.90;;;;;;4997876;28;20080;-84
2021/05/23 09:49:53;;;;;;;21.63;12.07;;;11.50;99.90;;;;;;5000295;28;20030;-86
2021/05/23 09:52:31;;;;;;;16.40;10.40;;;11.50;99.90;;;;;;5000397;28;20531;-86
2021/05/23 09:55:01;;;;;;;17.92;10.40;;;11.50;99.90;;;;;;5015400;28;20026;-83
2021/05/23 09:57:28;;;;;;;12.75;8.07;;;11.50;99.90;;;;;;5015672;28;20528;-87
2021/05/23 10:00:05;;;;;;;20.42;12.55;;;11.50;99.90;;;;;;4999049;28;20026;-86
2021/05/23 10:02:31;;;;;;;17.10;10.45;;;11.50;99.90;;;;;;5015362;28;20076;-85
2021/05/23 10:05:06;;;;;;;25.38;14.18;;;11.50;99.90;;;;;;5016673;28;20025;-86
2021/05/23 10:07:33;;;;;;;13.87;6.87;;;11.60;99.90;;;;;;5016623;28;20087;-87
2021/05/23 10:09:59;;;;;;;28.08;18.13;;;11.60;99.90;;;;;;4998675;28;20495;-89
2021/05/23 10:12:25;;;;;;;24.58;14.25;;;11.90;99.90;;;;;;5015491;28;20034;-87
2021/05/23 10:14:51;;;;;;;21.20;10.80;;;12.00;99.90;;;;;;5015069;28;20029;-87
2021/05/23 10:17:17;;;;;;;22.30;10.05;;;12.00;99.90;;;;;;5014855;28;20132;-85
2021/05/23 10:19:45;;;;;;;16.38;7.75;;;12.20;99.90;;;;;;5014823;28;20022;-84
2021/05/23 10:22:12;;;;;;;4.68;2.63;;;12.20;99.90;;;;;;4999105;28;20049;-87
2021/05/23 10:24:51;;;;;;;15.80;9.95;;;12.10;99.90;;;;;;4998873;28;20377;-88
2021/05/23 10:27:22;;;;;;;4.55;2.95;;;11.90;99.90;;;;;;4998721;28;20187;-86
2021/05/23 10:29:57;;;;;;;7.68;4.32;;;11.80;99.90;;;;;;4998019;28;20029;-87
2021/05/23 10:32:30;;;;;;;3.00;1.83;;;11.80;99.90;;;;;;5016188;28;20052;-85
2021/05/23 10:35:07;;;;;;;4.78;2.17;;;11.70;99.90;;;;;;4999148;28;20119;-86
2021/05/23 10:37:33;;;;;;;5.13;3.60;;;11.70;99.90;;;;;;4998806;28;20030;-88
2021/05/23 10:39:59;;;;;;;5.15;3.28;;;11.70;99.90;;;;;;4998492;28;20025;-88
2021/05/23 10:42:28;;;;;;;5.63;3.30;;;11.70;99.90;;;;;;4998707;28;20026;-84
2021/05/23 10:44:55;;;;;;;4.10;2.95;;;11.80;99.90;;;;;;4998349;28;20037;-90
2021/05/23 10:47:23;;;;;;;3.20;1.65;;;12.00;99.90;;;;;;4998724;28;20040;-87
2021/05/23 10:49:54;;;;;;;4.28;1.50;;;12.00;99.90;;;;;;4998171;28;20470;-84
2021/05/23 10:52:20;;;;;;;2.67;1.30;;;12.00;99.90;;;;;;4998909;28;20053;-87
2021/05/23 10:55:18;;;;;;;4.80;2.72;;;12.00;99.90;;;;;;4998222;28;20461;-86
2021/05/23 10:57:49;;;;;;;3.10;0.90;;;12.00;99.90;;;;;;4998984;28;20116;-85
2021/05/23 11:00:22;;;;;;;0.90;0.50;;;12.00;99.90;;;;;;4997934;28;20045;-84
2021/05/23 11:02:52;;;;;;;1.05;0.50;;;11.90;99.90;;;;;;5017521;28;20056;-87
2021/05/23 11:05:29;;;;;;;3.00;0.57;;;11.80;99.90;;;;;;5002127;28;20053;-88
2021/05/23 11:08:07;;;;;;;0.50;0.30;;;11.70;99.90;;;;;;5002132;28;20053;-88
2021/05/23 11:10:46;;;;;;;0.65;0.30;;;11.60;99.90;;;;;;5005885;28;20100;-84
2021/05/23 11:13:30;;;;;;;1.00;0.43;;;11.60;99.90;;;;;;5004643;28;20034;-86
2021/05/23 11:16:07;;;;;;;1.17;0.47;;;11.60;99.90;;;;;;5004369;28;20022;-88
2021/05/23 11:18:32;;;;;;;0.75;0.30;;;11.60;99.90;;;;;;5019296;28;20049;-84
2021/05/23 11:21:00;;;;;;;1.25;0.55;;;11.70;99.90;;;;;;5009657;28;20014;-87
2021/05/23 11:23:27;;;;;;;0.82;0.30;;;11.80;99.90;;;;;;5001592;28;20026;-83
2021/05/23 11:26:07;;;;;;;0.68;0.30;;;11.80;99.90;;;;;;5000595;28;20076;-85
2021/05/23 11:28:32;;;;;;;2.90;1.10;;;11.80;99.90;;;;;;5000640;28;20032;-86
2021/05/23 11:30:58;;;;;;;1.65;0.40;;;11.90;99.90;;;;;;4999582;28;20030;-83
2021/05/23 11:33:24;;;;;;;1.02;0.50;;;12.00;99.90;;;;;;4999991;28;20103;-86
2021/05/23 11:35:52;;;;;;;2.45;0.95;;;12.10;99.90;;;;;;5001258;28;20026;-85
2021/05/23 11:38:18;;;;;;;2.03;0.88;;;12.20;99.90;;;;;;5000197;28;20072;-85
2021/05/23 11:40:44;;;;;;;1.00;0.60;;;12.20;99.90;;;;;;5000621;28;20018;-85
2021/05/23 11:43:22;;;;;;;1.33;0.50;;;12.40;99.90;;;;;;5001359;28;20032;-87
2021/05/23 11:46:02;;;;;;;2.90;0.80;;;12.60;99.90;;;;;;5019362;28;20030;-87
2021/05/23 11:48:42;;;;;;;1.75;1.10;;;12.80;99.90;;;;;;5002248;28;20041;-85
2021/05/23 11:51:12;;;;;;;1.05;0.30;;;13.00;99.90;;;;;;5016272;28;20048;-86
2021/05/23 11:53:46;;;;;;;1.00;0.43;;;13.10;99.90;;;;;;5020628;28;20030;-87
2021/05/23 11:56:20;;;;;;;2.88;0.80;;;13.20;99.90;;;;;;5020118;28;20037;-86
2021/05/23 11:58:49;;;;;;;1.37;0.70;;;13.40;99.90;;;;;;5020746;28;20041;-88
2021/05/23 12:01:20;;;;;;;3.47;0.77;;;13.60;99.90;;;;;;5019682;28;20026;-86
2021/05/23 12:03:59;;;;;;;1.55;0.63;;;13.80;99.90;;;;;;5019860;28;20105;-86
2021/05/23 12:06:26;;;;;;;2.55;0.77;;;13.80;99.90;;;;;;5019465;28;20038;-88
2021/05/23 12:08:52;;;;;;;1.30;1.00;;;13.80;99.90;;;;;;5020185;28;20085;-86
2021/05/23 12:11:18;;;;;;;0.85;0.50;;;14.00;99.90;;;;;;5037078;28;20018;-86
2021/05/23 12:13:50;;;;;;;2.13;0.50;;;14.00;99.90;;;;;;5015688;28;20040;-85
2021/05/23 12:16:20;;;;;;;0.25;0.10;;;14.10;99.90;;;;;;5007563;28;20022;-84
2021/05/23 12:18:48;;;;;;;0.57;0.30;;;14.10;99.90;;;;;;5006576;28;20032;-86
2021/05/23 12:21:19;;;;;;;2.88;1.20;;;14.10;99.90;;;;;;5006615;28;20034;-87
2021/05/23 12:23:48;;;;;;;2.45;0.40;;;14.20;99.90;;;;;;5008088;28;20056;-87
2021/05/23 12:26:16;;;;;;;2.92;0.30;;;14.30;99.90;;;;;;5024639;28;20128;-85
2021/05/23 12:28:47;;;;;;;3.25;1.25;;;14.40;99.90;;;;;;5025512;28;20033;-86
2021/05/23 12:31:15;;;;;;;1.40;0.43;;;14.70;99.90;;;;;;5009285;28;20057;-86
2021/05/23 12:33:49;;;;;;;4.03;2.03;;;14.70;99.90;;;;;;5009476;28;20122;-86
2021/05/23 12:36:15;;;;;;;1.63;0.50;;;14.80;99.90;;;;;;5004390;28;20044;-85
2021/05/23 12:38:41;;;;;;;0.30;0.10;;;14.90;99.90;;;;;;5001299;28;20477;-87
2021/05/23 12:41:12;;;;;;;6.07;2.38;;;14.80;99.90;;;;;;5000957;28;20092;-86
2021/05/23 12:43:40;;;;;;;0.82;0.43;;;15.00;99.90;;;;;;5018589;28;20026;-84
2021/05/23 12:46:07;;;;;;;1.77;0.70;;;15.00;99.90;;;;;;5000255;28;20065;-87
2021/05/23 12:48:41;;;;;;;4.32;2.05;;;15.00;99.90;;;;;;5000070;28;20447;-87